createdAt,value
2023-03-15T00:01:46.721Z,100329.56
2023-03-15T00:04:14.093Z,100329.69
2023-03-15T00:06:40.997Z,100332.06
2023-03-15T00:09:07.811Z,100330.72
2023-03-15T00:11:34.553Z,100328.47
2023-03-15T00:14:02.398Z,100328.41
2023-03-15T00:16:29.094Z,100331.56
2023-03-15T00:18:56.158Z,100330.28
2023-03-15T00:21:23.327Z,100330.06
2023-03-15T00:23:50.342Z,100333.13
2023-03-15T00:26:17.343Z,100341.00
2023-03-15T00:28:44.334Z,100343.16
2023-03-15T00:31:13.998Z,100337.84
2023-03-15T00:33:41.577Z,100338.75
2023-03-15T00:36:10.532Z,100337.22
2023-03-15T00:38:38.664Z,100346.78
2023-03-15T00:41:10.797Z,100350.72
2023-03-15T00:43:37.443Z,100355.41
2023-03-15T00:46:05.071Z,100360.56
2023-03-15T00:48:32.229Z,100367.19
2023-03-15T00:51:21.376Z,100371.59
2023-03-15T00:53:49.619Z,100366.88
2023-03-15T00:56:20.136Z,100371.59
2023-03-15T00:58:47.481Z,100364.97
2023-03-15T01:01:19.851Z,100372.13
2023-03-15T01:03:47.195Z,100374.78
2023-03-15T01:06:16.489Z,100379.31
2023-03-15T01:08:44.035Z,100374.88
2023-03-15T01:11:13.467Z,100379.50
2023-03-15T01:13:40.744Z,100389.94
2023-03-15T01:16:09.326Z,100390.66
2023-03-15T01:18:37.751Z,100396.59
2023-03-15T01:21:09.442Z,100407.72
2023-03-15T01:23:36.146Z,100407.22
2023-03-15T01:26:04.889Z,100417.97
2023-03-15T01:28:31.476Z,100417.16
2023-03-15T01:30:59.871Z,100423.03
2023-03-15T01:33:27.586Z,100426.06
2023-03-15T01:36:06.661Z,100419.34
2023-03-15T01:38:35.157Z,100425.91
2023-03-15T01:41:02.197Z,100426.59
2023-03-15T01:43:34.460Z,100425.91
2023-03-15T01:46:01.481Z,100426.19
2023-03-15T01:48:45.965Z,100419.88
2023-03-15T01:51:44.963Z,100419.16
2023-03-15T01:54:26.763Z,100415.50
2023-03-15T01:57:15.207Z,100412.53
2023-03-15T01:59:52.368Z,100405.66
2023-03-15T02:02:22.517Z,100413.88
2023-03-15T02:04:58.134Z,100418.06
2023-03-15T02:07:27.536Z,100418.69
2023-03-15T02:10:04.082Z,100421.31
2023-03-15T02:12:38.361Z,100425.44
2023-03-15T02:15:06.110Z,100431.22
2023-03-15T02:17:41.742Z,100436.88
2023-03-15T02:20:27.961Z,100424.94
2023-03-15T02:23:00.120Z,100428.78
2023-03-15T02:25:27.399Z,100430.78
2023-03-15T02:27:55.217Z,100433.19
2023-03-15T02:30:22.123Z,100440.75
2023-03-15T02:32:49.605Z,100444.25
2023-03-15T02:35:28.966Z,100449.91
2023-03-15T02:37:56.032Z,100448.97
2023-03-15T02:40:25.274Z,100453.41
2023-03-15T02:42:55.794Z,100454.91
2023-03-15T02:45:27.053Z,100452.25
2023-03-15T02:47:53.936Z,100459.09
2023-03-15T02:50:20.603Z,100460.50
2023-03-15T02:52:47.157Z,100464.44
2023-03-15T02:55:13.731Z,100468.56
2023-03-15T02:57:40.397Z,100470.75
2023-03-15T03:00:13.232Z,100477.28
2023-03-15T03:02:46.360Z,100473.34
2023-03-15T03:05:14.863Z,100478.34
2023-03-15T03:07:44.568Z,100485.53
2023-03-15T03:10:16.174Z,100483.13
2023-03-15T03:12:53.467Z,100496.91
2023-03-15T03:15:25.752Z,100506.34
2023-03-15T03:17:52.322Z,100513.09
2023-03-15T03:20:19.129Z,100516.22
2023-03-15T03:22:47.094Z,100517.91
2023-03-15T03:25:13.667Z,100523.34
2023-03-15T03:27:41.077Z,100519.13
2023-03-15T03:30:13.047Z,100528.09
2023-03-15T03:32:44.356Z,100537.31
2023-03-15T03:35:14.733Z,100545.78
2023-03-15T03:37:42.739Z,100546.44
2023-03-15T03:40:14.762Z,100552.78
2023-03-15T03:42:41.676Z,100547.19
2023-03-15T03:45:09.218Z,100554.00
2023-03-15T03:47:41.829Z,100558.63
2023-03-15T03:50:12.880Z,100563.44
2023-03-15T03:52:43.774Z,100569.50
2023-03-15T03:55:14.720Z,100563.59
2023-03-15T03:57:43.010Z,100563.81
2023-03-15T04:00:14.921Z,100566.22
2023-03-15T04:02:44.376Z,100575.22
2023-03-15T04:05:13.935Z,100582.47
2023-03-15T04:07:41.524Z,100583.47
2023-03-15T04:10:14.692Z,100589.66
2023-03-15T04:12:44.184Z,100593.41
2023-03-15T04:15:12.256Z,100595.03
2023-03-15T04:17:39.435Z,100593.41
2023-03-15T04:20:07.927Z,100600.69
2023-03-15T04:22:37.509Z,100607.75
2023-03-15T04:25:26.566Z,100608.88
2023-03-15T04:28:03.824Z,100612.38
2023-03-15T04:30:50.965Z,100614.41
2023-03-15T04:33:32.549Z,100616.50
2023-03-15T04:36:07.991Z,100613.28
2023-03-15T04:39:03.327Z,100620.44
2023-03-15T04:41:50.968Z,100626.44
2023-03-15T04:44:27.072Z,100628.06
2023-03-15T04:46:55.331Z,100633.91
2023-03-15T04:49:44.919Z,100640.06
2023-03-15T04:52:29.945Z,100632.63
2023-03-15T04:55:25.337Z,100637.59
2023-03-15T04:58:12.149Z,100633.66
2023-03-15T05:00:57.475Z,100641.63
2023-03-15T05:03:28.452Z,100637.72
2023-03-15T05:06:30.141Z,100639.56
2023-03-15T05:09:06.319Z,100625.78
2023-03-15T05:11:53.152Z,100641.84
2023-03-15T05:14:40.025Z,100653.44
2023-03-15T05:17:15.411Z,100659.66
2023-03-15T05:19:51.805Z,100653.06
2023-03-15T05:22:37.118Z,100662.53
2023-03-15T05:25:15.534Z,100664.72
2023-03-15T05:28:18.282Z,100666.91
2023-03-15T05:31:08.389Z,100668.72
2023-03-15T05:34:12.116Z,100668.84
2023-03-15T05:36:57.336Z,100669.28
2023-03-15T05:39:34.859Z,100679.69
2023-03-15T05:42:39.880Z,100689.22
2023-03-15T05:45:47.029Z,100691.91
2023-03-15T05:48:27.647Z,100705.50
2023-03-15T05:51:13.245Z,100713.75
2023-03-15T05:53:58.376Z,100716.91
2023-03-15T05:56:36.069Z,100729.84
2023-03-15T05:59:33.198Z,100730.41
2023-03-15T06:02:18.406Z,100747.28
2023-03-15T06:04:57.187Z,100750.41
2023-03-15T06:07:26.524Z,100760.56
2023-03-15T06:09:53.353Z,100770.88
2023-03-15T06:12:20.138Z,100770.22
2023-03-15T06:14:47.212Z,100773.25
2023-03-15T06:17:13.813Z,100778.50
2023-03-15T06:19:43.504Z,100776.00
2023-03-15T06:22:10.396Z,100786.13
2023-03-15T06:24:50.660Z,100784.97
2023-03-15T06:27:21.782Z,100788.63
2023-03-15T06:29:50.462Z,100796.63
2023-03-15T06:32:19.622Z,100800.34
2023-03-15T06:34:46.482Z,100807.69
2023-03-15T06:37:22.744Z,100800.72
2023-03-15T06:39:55.973Z,100811.59
2023-03-15T06:42:22.952Z,100804.91
2023-03-15T06:44:51.176Z,100802.13
2023-03-15T06:47:18.814Z,100812.47
2023-03-15T06:49:50.154Z,100820.63
2023-03-15T06:52:18.191Z,100824.69
2023-03-15T06:54:44.896Z,100827.41
2023-03-15T06:57:11.667Z,100832.09
2023-03-15T06:59:38.264Z,100843.13
2023-03-15T07:02:04.956Z,100847.03
2023-03-15T07:04:31.489Z,100853.09
2023-03-15T07:06:58.153Z,100846.88
2023-03-15T07:09:24.832Z,100854.41
2023-03-15T07:11:51.388Z,100858.38
2023-03-15T07:14:17.909Z,100854.22
2023-03-15T07:16:44.556Z,100863.53
2023-03-15T07:19:11.152Z,100864.63
2023-03-15T07:21:37.722Z,100867.88
2023-03-15T07:24:04.519Z,100868.22
2023-03-15T07:26:31.157Z,100879.53
2023-03-15T07:28:57.683Z,100874.66
2023-03-15T07:31:24.216Z,100874.97
2023-03-15T07:33:50.800Z,100878.69
2023-03-15T07:36:17.352Z,100873.63
2023-03-15T07:38:43.929Z,100881.31
2023-03-15T07:41:10.719Z,100876.97
2023-03-15T07:43:40.888Z,100894.84
2023-03-15T07:46:14.115Z,100890.66
2023-03-15T07:48:41.208Z,100898.75
2023-03-15T07:51:07.781Z,100901.97
2023-03-15T07:53:34.401Z,100908.78
2023-03-15T07:56:01.375Z,100911.44
2023-03-15T07:58:28.244Z,100905.50
2023-03-15T08:00:56.410Z,100916.69
2023-03-15T08:03:24.222Z,100917.41
2023-03-15T08:05:51.255Z,100923.13
2023-03-15T08:08:17.932Z,100928.81
2023-03-15T08:10:45.379Z,100927.50
2023-03-15T08:13:12.556Z,100930.41
2023-03-15T08:15:39.187Z,100942.50
2023-03-15T08:18:06.517Z,100943.56
2023-03-15T08:20:36.097Z,100953.84
2023-03-15T08:23:02.622Z,100957.22
2023-03-15T08:25:29.674Z,100955.97
2023-03-15T08:27:56.471Z,100959.56
2023-03-15T08:30:23.464Z,100964.59
2023-03-15T08:32:52.523Z,100973.97
2023-03-15T08:35:21.909Z,100981.09
2023-03-15T08:37:48.542Z,100983.53
2023-03-15T08:40:18.924Z,100994.41
2023-03-15T08:42:46.002Z,101001.72
2023-03-15T08:45:12.806Z,100996.78
2023-03-15T08:47:39.414Z,101005.69
2023-03-15T08:50:12.068Z,101013.16
2023-03-15T08:52:39.515Z,101011.63
2023-03-15T08:55:07.335Z,101014.56
2023-03-15T08:57:34.736Z,101013.50
2023-03-15T09:00:08.034Z,101013.97
2023-03-15T09:02:35.164Z,101014.72
2023-03-15T09:05:01.956Z,101026.59
2023-03-15T09:07:28.583Z,101024.34
2023-03-15T09:09:55.207Z,101039.63
2023-03-15T09:12:22.026Z,101037.84
2023-03-15T09:14:48.572Z,101030.28
2023-03-15T09:17:15.175Z,101039.25
2023-03-15T09:19:41.861Z,101033.41
2023-03-15T09:22:16.264Z,101037.41
2023-03-15T09:24:51.855Z,101043.22
2023-03-15T09:27:19.480Z,101044.22
2023-03-15T09:29:46.167Z,101044.66
2023-03-15T09:32:13.333Z,101045.88
2023-03-15T09:34:42.288Z,101052.16
2023-03-15T09:37:09.789Z,101057.72
2023-03-15T09:39:36.579Z,101059.81
2023-03-15T09:42:10.833Z,101065.66
2023-03-15T09:44:48.230Z,101062.25
2023-03-15T09:47:23.945Z,101071.66
2023-03-15T09:50:17.990Z,101063.47
2023-03-15T09:52:51.635Z,101061.69
2023-03-15T09:55:30.461Z,101056.50
2023-03-15T09:58:05.081Z,101052.16
2023-03-15T10:00:38.737Z,101065.19
2023-03-15T10:03:09.783Z,101056.91
2023-03-15T10:05:46.315Z,101061.75
2023-03-15T10:08:18.487Z,101064.16
2023-03-15T10:11:15.163Z,101057.66
2023-03-15T10:14:18.458Z,101062.53
2023-03-15T10:16:51.010Z,101056.63
2023-03-15T10:19:22.915Z,101055.00
2023-03-15T10:22:14.409Z,101057.44
2023-03-15T10:24:49.541Z,101063.50
2023-03-15T10:27:33.891Z,101054.69
2023-03-15T10:30:02.085Z,101056.50
2023-03-15T10:32:38.366Z,101062.88
2023-03-15T10:35:15.833Z,101065.91
2023-03-15T10:37:43.251Z,101057.28
2023-03-15T10:40:18.151Z,101056.63
2023-03-15T10:42:46.700Z,101053.53
2023-03-15T10:45:25.031Z,101062.78
2023-03-15T10:48:00.457Z,101064.03
2023-03-15T10:50:30.935Z,101065.66
2023-03-15T10:52:59.651Z,101061.66
2023-03-15T10:55:33.567Z,101052.94
2023-03-15T10:58:19.231Z,101051.16
2023-03-15T11:00:59.851Z,101057.16
2023-03-15T11:03:35.444Z,101063.59
2023-03-15T11:06:31.444Z,101067.66
2023-03-15T11:09:23.690Z,101070.09
2023-03-15T11:12:10.808Z,101078.97
2023-03-15T11:14:52.971Z,101087.56
2023-03-15T11:17:25.988Z,101090.06
2023-03-15T11:20:16.526Z,101085.09
2023-03-15T11:22:43.987Z,101093.03
2023-03-15T11:25:15.775Z,101103.50
2023-03-15T11:27:43.674Z,101104.41
2023-03-15T11:30:16.275Z,101099.53
2023-03-15T11:32:44.687Z,101107.41
2023-03-15T11:35:15.344Z,101105.81
2023-03-15T11:38:06.254Z,101104.56
2023-03-15T11:40:45.276Z,101091.28
2023-03-15T11:43:24.528Z,101092.34
2023-03-15T11:45:58.396Z,101102.31
2023-03-15T11:48:51.456Z,101097.47
2023-03-15T11:51:18.280Z,101110.13
2023-03-15T11:53:48.494Z,101105.19
2023-03-15T11:56:27.394Z,101109.78
2023-03-15T11:59:25.349Z,101127.34
2023-03-15T12:02:10.824Z,101113.56
2023-03-15T12:04:46.325Z,101115.38
2023-03-15T12:07:18.969Z,101124.59
2023-03-15T12:10:18.353Z,101112.53
2023-03-15T12:12:46.944Z,101117.84
2023-03-15T12:15:43.359Z,101122.59
2023-03-15T12:18:15.868Z,101119.13
2023-03-15T12:20:54.707Z,101121.16
2023-03-15T12:23:54.407Z,101125.34
2023-03-15T12:27:01.772Z,101126.00
2023-03-15T12:29:55.842Z,101134.78
2023-03-15T12:32:52.754Z,101130.13
2023-03-15T12:35:32.857Z,101125.25
2023-03-15T12:38:10.438Z,101133.75
2023-03-15T12:43:54.593Z,101138.53
2023-03-15T12:46:45.959Z,101129.53
2023-03-15T12:49:41.757Z,101131.75
2023-03-15T12:52:42.081Z,101123.09
2023-03-15T12:55:22.467Z,101119.28
2023-03-15T12:58:19.485Z,101109.06
2023-03-15T13:01:06.567Z,101113.69
2023-03-15T13:04:06.723Z,101117.75
2023-03-15T13:06:57.525Z,101096.81
2023-03-15T13:09:39.942Z,101112.41
2023-03-15T13:12:29.535Z,101111.13
2023-03-15T13:15:19.912Z,101116.88
2023-03-15T13:18:07.739Z,101123.34
2023-03-15T13:20:52.739Z,101113.03
2023-03-15T13:23:45.052Z,101104.16
2023-03-15T13:26:52.852Z,101128.22
2023-03-15T13:29:58.126Z,101118.59
2023-03-15T13:32:40.756Z,101119.50
2023-03-15T13:35:29.999Z,101120.41
2023-03-15T13:38:38.500Z,101126.28
2023-03-15T13:41:16.700Z,101122.59
2023-03-15T13:43:50.404Z,101127.41
2023-03-15T13:46:26.297Z,101134.63
2023-03-15T13:49:05.862Z,101123.38
2023-03-15T13:52:01.207Z,101127.81
2023-03-15T13:55:00.121Z,101121.69
2023-03-15T13:57:31.951Z,101124.53
2023-03-15T14:00:25.197Z,101128.78
2023-03-15T14:03:08.542Z,101130.63
2023-03-15T14:05:46.222Z,101139.75
2023-03-15T14:08:19.957Z,101133.31
2023-03-15T14:10:59.024Z,101146.91
2023-03-15T14:13:35.115Z,101138.28
2023-03-15T14:16:07.289Z,101138.56
2023-03-15T14:18:39.585Z,101144.66
2023-03-15T14:21:07.634Z,101142.75
2023-03-15T14:23:40.864Z,101133.22
2023-03-15T14:26:29.721Z,101147.31
2023-03-15T14:29:00.658Z,101158.72
2023-03-15T14:31:33.002Z,101159.06
2023-03-15T14:34:19.002Z,101168.56
2023-03-15T14:36:45.781Z,101159.25
2023-03-15T14:39:28.591Z,101158.19
2023-03-15T14:41:56.156Z,101163.72
2023-03-15T14:44:22.779Z,101168.84
2023-03-15T14:46:49.684Z,101174.44
2023-03-15T14:49:30.419Z,101174.75
2023-03-15T14:52:03.817Z,101175.53
2023-03-15T14:54:31.918Z,101182.81
2023-03-15T14:56:58.545Z,101181.47
2023-03-15T14:59:25.313Z,101180.63
2023-03-15T15:01:58.451Z,101178.47
2023-03-15T15:04:32.184Z,101178.81
2023-03-15T15:06:58.871Z,101180.47
2023-03-15T15:09:28.047Z,101185.16
2023-03-15T15:11:54.853Z,101186.00
2023-03-15T15:14:24.676Z,101187.16
2023-03-15T15:16:52.255Z,101195.47
2023-03-15T15:19:18.960Z,101203.75
2023-03-15T15:21:45.658Z,101182.84
2023-03-15T15:24:18.591Z,101181.41
2023-03-15T15:26:46.211Z,101183.03
2023-03-15T15:29:14.892Z,101185.66
2023-03-15T15:31:42.187Z,101178.78
2023-03-15T15:34:10.119Z,101178.28
2023-03-15T15:36:47.250Z,101190.41
2023-03-15T15:39:27.482Z,101196.28
2023-03-15T15:41:54.247Z,101189.31
2023-03-15T15:44:23.820Z,101192.59
2023-03-15T15:46:50.430Z,101195.09
2023-03-15T15:49:18.063Z,101196.03
2023-03-15T15:51:46.259Z,101184.16
2023-03-15T15:54:18.917Z,101180.88
2023-03-15T15:56:49.379Z,101191.75
2023-03-15T15:59:17.590Z,101190.56
2023-03-15T16:01:58.999Z,101192.03
2023-03-15T16:04:26.995Z,101194.09
2023-03-15T16:07:02.811Z,101195.34
2023-03-15T16:09:31.957Z,101203.34
2023-03-15T16:11:58.705Z,101193.28
2023-03-15T16:14:25.342Z,101198.16
2023-03-15T16:16:51.870Z,101193.97
2023-03-15T16:19:18.503Z,101199.56
2023-03-15T16:21:49.741Z,101199.28
2023-03-15T16:24:23.298Z,101207.53
2023-03-15T16:26:50.583Z,101208.31
2023-03-15T16:29:23.122Z,101203.34
2023-03-15T16:31:50.943Z,101198.22
2023-03-15T16:34:19.476Z,101208.25
2023-03-15T16:36:49.597Z,101207.69
2023-03-15T16:39:17.779Z,101206.38
2023-03-15T16:41:44.396Z,101205.69
2023-03-15T16:44:16.501Z,101213.16
2023-03-15T16:46:43.617Z,101213.31
2023-03-15T16:49:10.381Z,101208.56
2023-03-15T16:51:40.778Z,101209.53
2023-03-15T16:54:19.628Z,101219.53
2023-03-15T16:56:51.312Z,101216.69
2023-03-15T16:59:18.024Z,101213.38
2023-03-15T17:01:45.570Z,101223.63
2023-03-15T17:04:13.735Z,101218.44
2023-03-15T17:06:41.610Z,101218.56
2023-03-15T17:09:13.954Z,101225.34
2023-03-15T17:11:42.663Z,101220.44
2023-03-15T17:14:16.401Z,101220.22
2023-03-15T17:16:43.145Z,101232.06
2023-03-15T17:19:14.304Z,101230.97
2023-03-15T17:21:42.771Z,101234.84
2023-03-15T17:24:11.024Z,101229.31
2023-03-15T17:26:38.352Z,101229.13
2023-03-15T17:29:05.472Z,101230.38
2023-03-15T17:31:34.855Z,101233.59
2023-03-15T17:34:01.553Z,101232.28
2023-03-15T17:36:34.673Z,101231.22
2023-03-15T17:39:04.351Z,101234.44
2023-03-15T17:41:31.891Z,101245.97
2023-03-15T17:43:59.036Z,101238.81
2023-03-15T17:46:33.179Z,101237.41
2023-03-15T17:49:01.510Z,101245.97
2023-03-15T17:51:31.565Z,101246.09
2023-03-15T17:53:59.578Z,101251.59
2023-03-15T17:56:29.942Z,101249.34
2023-03-15T17:58:56.535Z,101254.38
2023-03-15T18:01:27.397Z,101257.66
2023-03-15T18:03:55.126Z,101258.06
2023-03-15T18:06:22.334Z,101265.56
2023-03-15T18:08:49.903Z,101262.00
2023-03-15T18:11:27.437Z,101256.63
2023-03-15T18:13:54.600Z,101260.91
2023-03-15T18:16:21.437Z,101263.38
2023-03-15T18:18:48.096Z,101262.44
2023-03-15T18:21:19.008Z,101272.38
2023-03-15T18:23:45.641Z,101274.47
2023-03-15T18:26:12.987Z,101265.53
2023-03-15T18:28:40.284Z,101275.88
2023-03-15T18:31:36.453Z,101263.41
2023-03-15T18:34:03.673Z,101276.53
2023-03-15T18:36:31.521Z,101278.31
2023-03-15T18:38:58.462Z,101282.31
2023-03-15T18:41:25.617Z,101277.38
2023-03-15T18:43:52.675Z,101284.59
2023-03-15T18:46:26.991Z,101284.88
2023-03-15T18:48:53.864Z,101281.34
2023-03-15T18:51:25.702Z,101281.34
2023-03-15T18:53:52.720Z,101274.44
2023-03-15T18:56:20.501Z,101282.38
2023-03-15T18:58:48.422Z,101278.44
2023-03-15T19:01:15.856Z,101286.50
2023-03-15T19:03:42.843Z,101292.25
2023-03-15T19:06:11.722Z,101286.75
2023-03-15T19:08:38.777Z,101294.47
2023-03-15T19:11:07.898Z,101292.94
2023-03-15T19:13:34.895Z,101297.13
2023-03-15T19:16:01.806Z,101303.91
2023-03-15T19:18:28.988Z,101293.25
2023-03-15T19:20:55.526Z,101297.44
2023-03-15T19:23:22.086Z,101301.25
2023-03-15T19:25:48.747Z,101300.78
2023-03-15T19:28:16.097Z,101301.09
2023-03-15T19:30:43.090Z,101299.59
2023-03-15T19:33:09.998Z,101297.66
2023-03-15T19:35:36.983Z,101306.88
2023-03-15T19:38:04.015Z,101310.09
2023-03-15T19:40:30.688Z,101306.97
2023-03-15T19:42:57.359Z,101309.00
2023-03-15T19:45:24.032Z,101312.19
2023-03-15T19:47:50.758Z,101311.56
2023-03-15T19:50:17.618Z,101310.75
2023-03-15T19:52:47.158Z,101306.94
2023-03-15T19:55:19.149Z,101310.31
2023-03-15T19:57:46.084Z,101305.38
2023-03-15T20:00:18.460Z,101306.44
2023-03-15T20:02:45.883Z,101317.63
2023-03-15T20:05:15.208Z,101315.69
2023-03-15T20:07:46.126Z,101316.47
2023-03-15T20:10:13.656Z,101330.41
2023-03-15T20:12:42.410Z,101329.03
2023-03-15T20:15:10.795Z,101336.25
2023-03-15T20:17:38.112Z,101336.19
2023-03-15T20:20:13.608Z,101340.03
2023-03-15T20:22:42.785Z,101343.56
2023-03-15T20:25:12.355Z,101338.41
2023-03-15T20:27:39.134Z,101344.69
2023-03-15T20:30:06.899Z,101346.75
2023-03-15T20:32:33.562Z,101349.66
2023-03-15T20:35:02.187Z,101353.03
2023-03-15T20:37:30.243Z,101355.66
2023-03-15T20:39:56.896Z,101349.31
2023-03-15T20:42:24.698Z,101350.22
2023-03-15T20:44:52.604Z,101354.88
2023-03-15T20:47:19.529Z,101355.22
2023-03-15T20:49:46.146Z,101350.09
2023-03-15T20:52:12.677Z,101361.59
2023-03-15T20:54:39.297Z,101359.06
2023-03-15T20:57:07.098Z,101357.00
2023-03-15T20:59:33.686Z,101356.81
2023-03-15T21:02:02.697Z,101353.84
2023-03-15T21:04:29.323Z,101350.75
2023-03-15T21:06:56.177Z,101360.28
2023-03-15T21:09:22.863Z,101357.38
2023-03-15T21:11:49.996Z,101355.97
2023-03-15T21:14:16.513Z,101358.59
2023-03-15T21:16:43.084Z,101368.19
2023-03-15T21:19:09.664Z,101368.19
2023-03-15T21:21:36.307Z,101365.50
2023-03-15T21:24:06.173Z,101354.06
2023-03-15T21:26:32.814Z,101360.59
2023-03-15T21:29:02.295Z,101361.53
2023-03-15T21:31:28.876Z,101363.03
2023-03-15T21:33:55.775Z,101361.53
2023-03-15T21:36:22.360Z,101359.47
2023-03-15T21:38:48.972Z,101365.97
2023-03-15T21:41:15.626Z,101356.59
2023-03-15T21:43:42.207Z,101356.72
2023-03-15T21:46:11.968Z,101359.56
2023-03-15T21:48:38.740Z,101361.25
2023-03-15T21:51:06.719Z,101353.47
2023-03-15T21:53:34.546Z,101353.84
2023-03-15T21:56:01.771Z,101362.94
2023-03-15T21:58:29.291Z,101367.88
2023-03-15T22:01:05.119Z,101362.03
2023-03-15T22:03:33.600Z,101366.38
2023-03-15T22:06:00.882Z,101365.41
2023-03-15T22:08:28.287Z,101360.63
2023-03-15T22:10:56.581Z,101358.69
2023-03-15T22:13:23.521Z,101361.16
2023-03-15T22:15:52.114Z,101366.22
2023-03-15T22:18:19.346Z,101356.91
2023-03-15T22:20:51.005Z,101353.38
2023-03-15T22:23:18.329Z,101356.84
2023-03-15T22:25:45.109Z,101360.09
2023-03-15T22:28:12.224Z,101348.50
2023-03-15T22:30:39.079Z,101353.19
2023-03-15T22:33:05.777Z,101345.88
2023-03-15T22:35:33.461Z,101344.16
2023-03-15T22:38:00.222Z,101349.81
2023-03-15T22:40:28.369Z,101349.38
2023-03-15T22:42:57.136Z,101352.91
2023-03-15T22:45:25.920Z,101346.56
2023-03-15T22:47:52.802Z,101347.53
2023-03-15T22:50:19.624Z,101342.41
2023-03-15T22:52:46.303Z,101344.16
2023-03-15T22:55:13.038Z,101351.78
2023-03-15T22:57:39.906Z,101350.91
2023-03-15T23:00:13.690Z,101360.53
2023-03-15T23:02:42.093Z,101362.94
2023-03-15T23:05:10.211Z,101354.41
2023-03-15T23:07:37.034Z,101350.91
2023-03-15T23:10:06.094Z,101350.72
2023-03-15T23:12:36.174Z,101360.09
2023-03-15T23:15:04.508Z,101366.88
2023-03-15T23:17:31.427Z,101361.31
2023-03-15T23:19:58.034Z,101365.22
2023-03-15T23:22:24.700Z,101363.78
2023-03-15T23:24:51.543Z,101357.75
2023-03-15T23:27:18.204Z,101363.78
2023-03-15T23:29:54.072Z,101355.44
2023-03-15T23:32:21.898Z,101360.59
2023-03-15T23:34:48.796Z,101365.06
2023-03-15T23:37:15.496Z,101358.47
2023-03-15T23:39:42.972Z,101359.06
2023-03-15T23:42:10.315Z,101365.38
2023-03-15T23:44:36.899Z,101360.03
2023-03-15T23:47:05.640Z,101361.63
2023-03-15T23:49:33.067Z,101356.00
2023-03-15T23:52:05.813Z,101350.81
2023-03-15T23:54:39.405Z,101354.22
2023-03-15T23:57:07.474Z,101358.56
2023-03-15T23:59:36.160Z,101360.59
